Terminal Aerodrome Forecast
Issued by NWS Pueblo, CO

Home | Current Version | Previous Version | Text Only | Print | Product List | Glossary On
Versions: 1 2 3 4 5 6 7 8 9 10 11 12 13 14 15 16 17 18 19 20 21
000
FTUS45 KPUB 242353
TAFPUB
TAF
KPUB 242353Z 2500/2524 06012KT P6SM FEW080 BKN110
     FM250600 VRB05KT P6SM FEW110
     FM251800 14008KT P6SM FEW110
     FM252200 14010KT P6SM VCTS SCT100CB=

USA.gov is the U.S. government's official web portal to all federal, state and local government web resources and services.